Time;durP1;ratioP1;P1;durP2;ratioP2;P2;SDS_P1;SDS_P2;PMS_P1;PMS_P2;Temp;Humidity;BMP_temperature;BMP_pressure;BME280_temperature;BME280_humidity;BME280_pressure;Samples;Min_cycle;Max_cycle;Signal;HPM_P1;HPM_P2
2023/12/26 00:00:35;;;;;;;1.67;0.90;;;12.40;79.10;;;;;;4950002;28;20206;-85
2023/12/26 00:03:06;;;;;;;3.20;0.90;;;12.30;79.10;;;;;;4948202;28;20389;-86
2023/12/26 00:05:35;;;;;;;1.80;1.43;;;12.30;79.20;;;;;;4955243;28;20301;-86
2023/12/26 00:08:07;;;;;;;0.60;0.60;;;12.20;79.10;;;;;;4958514;28;20204;-85
2023/12/26 00:10:37;;;;;;;0.50;0.50;;;12.20;79.10;;;;;;4951296;28;20218;-86
2023/12/26 00:13:06;;;;;;;0.70;0.70;;;12.20;79.10;;;;;;4946457;28;20195;-86
2023/12/26 00:15:35;;;;;;;1.90;1.13;;;12.20;79.00;;;;;;4944016;28;20234;-85
2023/12/26 00:18:05;;;;;;;2.33;0.70;;;12.20;79.00;;;;;;4943354;28;20206;-86
2023/12/26 00:20:34;;;;;;;0.90;0.90;;;12.20;78.90;;;;;;4944653;28;20206;-87
2023/12/26 00:23:03;;;;;;;1.07;0.97;;;12.20;78.90;;;;;;4951150;28;20237;-87
2023/12/26 00:25:31;;;;;;;1.17;1.07;;;12.20;78.90;;;;;;4946348;28;20297;-86
2023/12/26 00:28:01;;;;;;;1.03;0.80;;;12.20;78.80;;;;;;4947983;28;20619;-86
2023/12/26 00:30:30;;;;;;;1.93;1.53;;;12.10;78.80;;;;;;4949478;28;20210;-86
2023/12/26 00:32:59;;;;;;;0.93;0.60;;;12.10;78.90;;;;;;4946717;28;20217;-86
2023/12/26 00:35:28;;;;;;;1.30;1.17;;;12.10;78.90;;;;;;4943565;28;20569;-87
2023/12/26 00:37:58;;;;;;;1.43;1.13;;;12.00;78.90;;;;;;4945325;28;20579;-86
2023/12/26 00:40:27;;;;;;;0.83;0.83;;;12.00;78.90;;;;;;4943855;28;20214;-86
2023/12/26 00:42:56;;;;;;;0.63;0.63;;;12.00;79.00;;;;;;4947188;28;20222;-86
2023/12/26 00:45:26;;;;;;;1.20;1.10;;;12.00;79.10;;;;;;4953675;28;20208;-85
2023/12/26 00:47:57;;;;;;;0.60;0.60;;;11.90;79.10;;;;;;4953148;28;20293;-86
2023/12/26 00:50:26;;;;;;;1.63;0.97;;;11.90;79.00;;;;;;4953762;28;20189;-86
2023/12/26 00:52:54;;;;;;;1.03;0.77;;;11.90;79.10;;;;;;4949474;28;20199;-87
2023/12/26 00:55:25;;;;;;;0.67;0.67;;;11.80;79.10;;;;;;4953812;28;20212;-85
2023/12/26 00:57:54;;;;;;;0.40;0.40;;;11.80;79.20;;;;;;4951699;28;20266;-85
2023/12/26 01:00:22;;;;;;;0.60;0.60;;;11.70;79.20;;;;;;4950892;28;20205;-86
2023/12/26 01:02:53;;;;;;;0.50;0.50;;;11.70;79.20;;;;;;4950133;28;20230;-85
2023/12/26 01:05:23;;;;;;;1.43;1.33;;;11.70;79.30;;;;;;4949620;28;20217;-86
2023/12/26 01:07:51;;;;;;;2.00;1.63;;;11.60;79.30;;;;;;4953728;28;20300;-86
2023/12/26 01:10:20;;;;;;;1.83;1.53;;;11.60;79.40;;;;;;4952117;28;20269;-86
2023/12/26 01:12:49;;;;;;;3.40;1.70;;;11.60;79.50;;;;;;4951243;28;20582;-86
2023/12/26 01:15:18;;;;;;;0.57;0.57;;;11.50;79.60;;;;;;4954545;28;20214;-85
2023/12/26 01:17:47;;;;;;;0.30;0.30;;;11.50;79.60;;;;;;4952562;28;20222;-84
2023/12/26 01:20:17;;;;;;;2.77;2.30;;;11.50;79.60;;;;;;4951724;28;20627;-84
2023/12/26 01:22:46;;;;;;;1.77;1.47;;;11.40;79.60;;;;;;4955097;28;20234;-87
2023/12/26 01:25:15;;;;;;;1.13;0.80;;;11.40;79.60;;;;;;4950742;28;20603;-86
2023/12/26 01:27:44;;;;;;;2.10;1.57;;;11.40;79.70;;;;;;4947094;28;20659;-85
2023/12/26 01:30:13;;;;;;;1.13;0.97;;;11.40;79.80;;;;;;4951849;28;20197;-84
2023/12/26 01:32:42;;;;;;;1.30;1.23;;;11.40;79.90;;;;;;4952690;28;20212;-85
2023/12/26 01:35:10;;;;;;;1.07;0.90;;;11.40;79.90;;;;;;4945459;28;20199;-84
2023/12/26 01:37:40;;;;;;;0.73;0.73;;;11.30;79.90;;;;;;4944173;28;20206;-85
2023/12/26 01:40:11;;;;;;;0.87;0.83;;;11.30;79.80;;;;;;4947948;28;20977;-85
2023/12/26 01:42:41;;;;;;;2.30;1.30;;;11.30;79.90;;;;;;4948740;28;20480;-85
2023/12/26 01:45:11;;;;;;;1.60;1.37;;;11.40;80.00;;;;;;4945029;28;20203;-85
2023/12/26 01:47:41;;;;;;;2.07;1.03;;;11.40;80.00;;;;;;4951141;28;20202;-85
2023/12/26 01:50:10;;;;;;;0.40;0.40;;;11.30;80.00;;;;;;4950756;28;20230;-85
2023/12/26 01:52:41;;;;;;;1.07;1.07;;;11.20;80.20;;;;;;4950954;28;20670;-86
2023/12/26 01:55:11;;;;;;;0.83;0.83;;;11.20;80.20;;;;;;4950764;28;20221;-86
2023/12/26 01:57:41;;;;;;;1.07;1.07;;;11.20;80.30;;;;;;4949790;28;20349;-85
2023/12/26 02:00:11;;;;;;;3.47;1.20;;;11.10;80.40;;;;;;4945201;28;20526;-86
2023/12/26 02:02:42;;;;;;;0.60;0.60;;;11.10;80.50;;;;;;4953849;28;20206;-85
2023/12/26 02:05:12;;;;;;;0.60;0.60;;;11.10;80.50;;;;;;4951680;28;20213;-86
2023/12/26 02:07:42;;;;;;;1.47;1.37;;;11.10;80.50;;;;;;4947938;28;20640;-86
2023/12/26 02:10:11;;;;;;;1.40;1.20;;;11.00;80.60;;;;;;4949943;28;20210;-88
2023/12/26 02:12:39;;;;;;;0.70;0.70;;;11.00;80.50;;;;;;4955915;28;20233;-87
2023/12/26 02:15:09;;;;;;;0.93;0.93;;;11.00;80.60;;;;;;4952646;28;20202;-86
2023/12/26 02:17:38;;;;;;;1.13;1.07;;;11.00;80.80;;;;;;4952594;28;20293;-87
2023/12/26 02:20:08;;;;;;;1.40;0.70;;;11.00;80.70;;;;;;4953538;28;20598;-88
2023/12/26 02:22:38;;;;;;;0.40;0.40;;;11.00;80.60;;;;;;4953368;28;20281;-86
2023/12/26 02:25:09;;;;;;;0.40;0.40;;;11.00;80.70;;;;;;4951326;28;20230;-84
2023/12/26 02:27:38;;;;;;;2.77;0.83;;;10.90;80.80;;;;;;4947920;28;20190;-85
2023/12/26 02:30:09;;;;;;;5.23;1.10;;;11.00;80.90;;;;;;4948362;28;20281;-81
2023/12/26 02:32:41;;;;;;;0.67;0.67;;;11.00;80.80;;;;;;4953048;28;20262;-84
2023/12/26 02:35:11;;;;;;;0.50;0.50;;;11.00;80.90;;;;;;4943278;28;20297;-81
2023/12/26 02:37:41;;;;;;;0.83;0.77;;;11.00;81.00;;;;;;4943638;28;20202;-83
2023/12/26 02:40:12;;;;;;;10.50;1.00;;;11.00;81.10;;;;;;4943723;28;20207;-83
2023/12/26 02:42:41;;;;;;;1.70;1.53;;;10.90;81.40;;;;;;4949167;28;20228;-83
2023/12/26 02:45:11;;;;;;;1.73;1.63;;;10.90;81.50;;;;;;4947558;28;20222;-83
2023/12/26 02:47:39;;;;;;;1.13;1.10;;;10.90;81.50;;;;;;4950292;28;20182;-83
2023/12/26 02:50:09;;;;;;;0.57;0.57;;;10.90;81.70;;;;;;4943277;28;20337;-81
2023/12/26 02:52:39;;;;;;;0.73;0.67;;;10.80;81.70;;;;;;4952730;28;20202;-83
2023/12/26 02:55:08;;;;;;;2.80;1.00;;;10.80;81.90;;;;;;4944284;28;20406;-83
2023/12/26 02:57:38;;;;;;;1.00;0.93;;;10.80;81.90;;;;;;4945326;28;20269;-83
2023/12/26 03:00:08;;;;;;;2.70;0.97;;;10.80;82.00;;;;;;4947612;28;20659;-82
2023/12/26 03:02:37;;;;;;;1.60;1.07;;;10.80;82.10;;;;;;4949210;28;20221;-82
2023/12/26 03:05:09;;;;;;;1.40;1.17;;;10.70;82.10;;;;;;4949532;28;20290;-83
2023/12/26 03:07:37;;;;;;;0.60;0.60;;;10.70;82.20;;;;;;4941309;28;20191;-83
2023/12/26 03:10:09;;;;;;;0.60;0.50;;;10.80;82.30;;;;;;4949204;28;20536;-82
2023/12/26 03:12:39;;;;;;;1.90;1.00;;;10.70;82.30;;;;;;4950584;28;20238;-82
2023/12/26 03:15:08;;;;;;;0.63;0.63;;;10.70;82.50;;;;;;4947798;28;20224;-82
2023/12/26 03:17:40;;;;;;;3.97;0.97;;;10.70;82.50;;;;;;4946663;28;20668;-83
2023/12/26 03:20:09;;;;;;;0.40;0.40;;;10.80;82.40;;;;;;4945612;28;20206;-82
2023/12/26 03:22:39;;;;;;;0.60;0.60;;;10.70;82.40;;;;;;4950333;28;20202;-83
2023/12/26 03:25:08;;;;;;;1.47;1.37;;;10.80;82.40;;;;;;4953239;28;20232;-83
2023/12/26 03:27:39;;;;;;;0.93;0.60;;;10.80;82.30;;;;;;4952887;28;20222;-83
2023/12/26 03:30:09;;;;;;;0.37;0.37;;;10.80;82.20;;;;;;4948558;28;20225;-86
2023/12/26 03:32:38;;;;;;;0.90;0.90;;;10.80;82.20;;;;;;4950035;28;20207;-84
2023/12/26 03:35:07;;;;;;;2.97;2.50;;;10.80;82.20;;;;;;4949622;28;20217;-85
2023/12/26 03:37:38;;;;;;;0.40;0.40;;;10.80;82.20;;;;;;4951634;28;20626;-84
2023/12/26 03:40:09;;;;;;;0.70;0.70;;;10.80;82.30;;;;;;4952483;28;20198;-88
2023/12/26 03:42:39;;;;;;;1.30;1.20;;;10.80;82.40;;;;;;4950008;28;20199;-86
2023/12/26 03:45:08;;;;;;;3.87;1.40;;;10.80;82.60;;;;;;4956615;28;20238;-86
2023/12/26 03:47:37;;;;;;;1.30;0.73;;;10.80;82.90;;;;;;4957741;28;20198;-87
2023/12/26 03:50:07;;;;;;;0.30;0.30;;;10.80;82.90;;;;;;4959729;28;20274;-87
2023/12/26 03:52:37;;;;;;;0.40;0.40;;;10.80;83.80;;;;;;4963670;28;20201;-89
2023/12/26 03:55:06;;;;;;;0.83;0.63;;;10.90;82.90;;;;;;4957403;28;20678;-87
2023/12/26 03:57:35;;;;;;;3.10;1.97;;;10.80;82.70;;;;;;4959486;28;20238;-87
2023/12/26 04:00:09;;;;;;;0.63;0.63;;;10.80;82.90;;;;;;4955665;28;20245;-86
2023/12/26 04:02:37;;;;;;;1.03;0.60;;;10.80;82.90;;;;;;4960995;28;20191;-87
2023/12/26 04:05:07;;;;;;;0.60;0.60;;;10.80;82.80;;;;;;4959857;28;20224;-88
2023/12/26 04:07:36;;;;;;;1.80;1.70;;;10.90;83.00;;;;;;4961956;28;20257;-88
2023/12/26 04:10:05;;;;;;;0.83;0.83;;;10.90;82.80;;;;;;4955352;28;20194;-85
2023/12/26 04:12:35;;;;;;;14.77;1.23;;;10.90;82.70;;;;;;4958143;28;20209;-86
2023/12/26 04:15:04;;;;;;;2.60;0.60;;;10.80;82.60;;;;;;4955954;28;20206;-87
2023/12/26 04:17:35;;;;;;;0.90;0.90;;;10.90;82.50;;;;;;4953101;28;20720;-85
2023/12/26 04:20:04;;;;;;;0.83;0.83;;;10.80;82.40;;;;;;4948916;28;20205;-88
2023/12/26 04:22:32;;;;;;;1.17;1.07;;;10.80;82.40;;;;;;4957616;28;20260;-88
2023/12/26 04:25:06;;;;;;;1.00;0.80;;;10.80;82.40;;;;;;4958306;28;20666;-86
2023/12/26 04:27:35;;;;;;;1.27;1.17;;;10.80;82.40;;;;;;4952572;28;20958;-87
2023/12/26 04:30:04;;;;;;;1.23;1.13;;;10.90;82.50;;;;;;4955630;28;20186;-89
2023/12/26 04:32:34;;;;;;;1.77;1.30;;;10.90;82.30;;;;;;4955803;28;20575;-87
2023/12/26 04:35:03;;;;;;;1.23;1.10;;;10.90;82.80;;;;;;4956101;28;20289;-88
2023/12/26 04:37:31;;;;;;;3.20;1.80;;;11.00;82.10;;;;;;4957879;28;20214;-88
2023/12/26 04:40:00;;;;;;;1.90;1.13;;;11.00;81.80;;;;;;4953669;28;20277;-88
2023/12/26 04:42:29;;;;;;;0.70;0.70;;;11.00;81.70;;;;;;4949371;28;20317;-87
2023/12/26 04:44:58;;;;;;;1.20;1.10;;;10.90;81.60;;;;;;4948830;28;20223;-89
2023/12/26 04:47:28;;;;;;;0.50;0.50;;;10.90;81.80;;;;;;4952076;28;20206;-88
2023/12/26 04:50:00;;;;;;;0.60;0.60;;;10.90;81.70;;;;;;4947866;28;20214;-88
2023/12/26 04:52:28;;;;;;;0.43;0.43;;;10.90;81.60;;;;;;4955261;28;20261;-88
2023/12/26 04:54:57;;;;;;;1.57;1.43;;;10.90;81.60;;;;;;4953672;28;20205;-87
2023/12/26 04:57:27;;;;;;;1.33;1.07;;;10.90;81.50;;;;;;4954368;28;20229;-87
2023/12/26 04:59:56;;;;;;;2.73;0.93;;;10.90;81.50;;;;;;4951183;28;20218;-87
2023/12/26 05:02:25;;;;;;;1.97;1.23;;;10.90;81.30;;;;;;4963179;28;20225;-88
2023/12/26 05:04:53;;;;;;;0.50;0.50;;;10.90;81.30;;;;;;4950889;28;20230;-87
2023/12/26 05:07:23;;;;;;;0.57;0.57;;;10.90;81.20;;;;;;4956000;28;20202;-87
2023/12/26 05:09:52;;;;;;;0.70;0.70;;;10.90;81.20;;;;;;4956172;28;20206;-88
2023/12/26 05:12:21;;;;;;;0.50;0.50;;;10.90;81.10;;;;;;4954981;28;20682;-87
2023/12/26 05:14:49;;;;;;;1.90;1.40;;;10.90;81.10;;;;;;4953186;28;20203;-86
2023/12/26 05:17:18;;;;;;;1.23;0.60;;;10.90;81.10;;;;;;4959416;28;20207;-87
2023/12/26 05:19:47;;;;;;;1.67;1.37;;;10.90;81.10;;;;;;4956612;28;20545;-84
2023/12/26 05:22:16;;;;;;;0.73;0.73;;;10.90;81.00;;;;;;4954586;28;20198;-85
2023/12/26 05:24:46;;;;;;;0.50;0.50;;;10.90;81.00;;;;;;4946458;28;20281;-85
2023/12/26 05:27:21;;;;;;;1.23;1.10;;;10.90;80.90;;;;;;4953930;28;20206;-85
2023/12/26 05:29:49;;;;;;;0.83;0.83;;;10.90;80.90;;;;;;4954699;28;20214;-86
2023/12/26 05:32:18;;;;;;;0.90;0.87;;;10.80;80.80;;;;;;4954664;28;20645;-84
2023/12/26 05:34:48;;;;;;;0.50;0.50;;;10.90;81.00;;;;;;4950316;28;20219;-86
2023/12/26 05:37:17;;;;;;;0.83;0.83;;;10.80;81.00;;;;;;4953939;28;20224;-85
2023/12/26 05:39:47;;;;;;;1.10;1.00;;;10.80;81.00;;;;;;4955484;28;20213;-86
2023/12/26 05:42:17;;;;;;;2.67;1.23;;;10.80;80.90;;;;;;4950670;28;20302;-83
2023/12/26 05:44:46;;;;;;;1.53;1.40;;;10.80;80.90;;;;;;4950270;28;20212;-84
2023/12/26 05:47:14;;;;;;;1.90;1.50;;;10.70;81.00;;;;;;4952141;28;20288;-84
2023/12/26 05:49:43;;;;;;;0.30;0.30;;;10.70;81.00;;;;;;4949311;28;20210;-84
2023/12/26 05:52:12;;;;;;;0.37;0.37;;;10.70;80.80;;;;;;4951068;28;20224;-84
2023/12/26 05:54:41;;;;;;;0.80;0.80;;;10.70;80.90;;;;;;4947009;28;20694;-83
2023/12/26 05:57:11;;;;;;;0.70;0.70;;;10.70;80.80;;;;;;4951291;28;20739;-84
2023/12/26 05:59:40;;;;;;;0.80;0.57;;;10.70;80.90;;;;;;4953327;28;20234;-82
2023/12/26 06:02:09;;;;;;;5.63;1.63;;;10.70;81.10;;;;;;4950388;28;20194;-82
2023/12/26 06:04:40;;;;;;;2.77;1.20;;;10.70;81.10;;;;;;4947440;28;20211;-84
2023/12/26 06:07:08;;;;;;;0.80;0.80;;;10.80;81.10;;;;;;4951841;28;20230;-84
2023/12/26 06:09:37;;;;;;;1.83;1.27;;;10.80;81.00;;;;;;4946867;28;20246;-82
2023/12/26 06:12:06;;;;;;;1.03;0.93;;;10.80;80.90;;;;;;4949874;28;20216;-84
2023/12/26 06:14:38;;;;;;;1.00;0.97;;;10.80;80.90;;;;;;4949930;28;20205;-83
2023/12/26 06:17:07;;;;;;;0.70;0.70;;;10.80;80.90;;;;;;4950350;28;20729;-84
2023/12/26 06:19:36;;;;;;;3.40;2.03;;;10.80;81.00;;;;;;4952574;28;20238;-84
2023/12/26 06:22:05;;;;;;;1.80;1.70;;;10.70;81.00;;;;;;4951758;28;20206;-84
2023/12/26 06:24:34;;;;;;;0.60;0.60;;;10.70;81.00;;;;;;4952809;28;20709;-83
2023/12/26 06:27:02;;;;;;;2.20;1.27;;;10.70;81.30;;;;;;4947172;28;20301;-84
2023/12/26 06:29:31;;;;;;;3.70;0.63;;;10.70;81.30;;;;;;4948194;28;20202;-83
2023/12/26 06:32:01;;;;;;;1.27;1.17;;;10.70;81.30;;;;;;4945396;28;20234;-84
2023/12/26 06:34:30;;;;;;;1.70;1.33;;;10.70;81.90;;;;;;4951425;28;20855;-84
2023/12/26 06:36:58;;;;;;;0.80;0.80;;;10.70;81.90;;;;;;4956079;28;20206;-84
2023/12/26 06:39:27;;;;;;;2.03;1.07;;;10.70;81.90;;;;;;4947326;28;20216;-85
2023/12/26 06:41:56;;;;;;;0.73;0.73;;;10.70;81.90;;;;;;4955322;28;20210;-85
2023/12/26 06:44:25;;;;;;;0.57;0.57;;;10.70;81.90;;;;;;4951034;28;20201;-84
2023/12/26 06:46:53;;;;;;;0.90;0.90;;;10.70;81.60;;;;;;4954993;28;20232;-85
2023/12/26 06:49:24;;;;;;;0.80;0.80;;;10.80;81.60;;;;;;4953149;28;20246;-85
2023/12/26 06:51:53;;;;;;;0.40;0.40;;;10.80;81.60;;;;;;4955306;28;20290;-85
2023/12/26 06:54:23;;;;;;;1.27;0.77;;;10.80;81.60;;;;;;4952953;28;20191;-85
2023/12/26 06:56:52;;;;;;;0.43;0.43;;;10.80;81.50;;;;;;4952687;28;20238;-85
2023/12/26 06:59:21;;;;;;;2.80;1.47;;;10.80;81.60;;;;;;4958162;28;20685;-85
2023/12/26 07:01:50;;;;;;;3.73;0.80;;;10.80;81.50;;;;;;4955680;28;20761;-85
2023/12/26 07:04:18;;;;;;;1.50;1.33;;;10.80;81.50;;;;;;4958513;28;20202;-86
2023/12/26 07:06:48;;;;;;;2.97;1.10;;;10.80;81.60;;;;;;4960148;28;20583;-85
2023/12/26 07:09:17;;;;;;;2.17;1.93;;;10.90;81.80;;;;;;4956578;28;20210;-86
2023/12/26 07:11:48;;;;;;;1.23;1.13;;;10.90;81.80;;;;;;4957965;28;20694;-87
2023/12/26 07:14:17;;;;;;;2.30;1.93;;;10.90;81.70;;;;;;4956222;28;20242;-86
2023/12/26 07:16:45;;;;;;;1.03;1.03;;;11.00;81.80;;;;;;4959251;28;20202;-90
2023/12/26 07:19:14;;;;;;;6.20;1.03;;;11.00;81.60;;;;;;4954883;28;20202;-86
2023/12/26 07:21:45;;;;;;;5.20;1.00;;;11.10;81.70;;;;;;4954427;28;20229;-86
2023/12/26 07:24:15;;;;;;;1.10;1.00;;;11.10;81.90;;;;;;4946579;28;20202;-83
2023/12/26 07:26:46;;;;;;;0.70;0.67;;;11.30;81.90;;;;;;4948923;28;20254;-84
2023/12/26 07:29:18;;;;;;;0.50;0.50;;;11.30;81.90;;;;;;4947878;28;20202;-83
2023/12/26 07:31:46;;;;;;;2.73;1.10;;;11.40;81.90;;;;;;4953673;28;20207;-82
2023/12/26 07:34:15;;;;;;;0.30;0.30;;;11.50;81.90;;;;;;4950529;28;20209;-83
2023/12/26 07:36:50;;;;;;;1.63;1.23;;;11.60;81.80;;;;;;4953479;28;20289;-84
2023/12/26 07:39:20;;;;;;;1.20;0.93;;;11.70;81.60;;;;;;4950502;28;20262;-83
2023/12/26 07:41:48;;;;;;;0.73;0.60;;;11.80;81.60;;;;;;4951045;28;20294;-83
2023/12/26 07:44:17;;;;;;;0.53;0.53;;;11.80;81.80;;;;;;4952949;28;20589;-84
2023/12/26 07:46:46;;;;;;;2.37;0.87;;;12.00;81.10;;;;;;4956539;28;20787;-88
2023/12/26 07:49:19;;;;;;;1.17;0.90;;;12.10;81.00;;;;;;4952878;28;20212;-86
2023/12/26 07:51:48;;;;;;;0.70;0.70;;;12.20;80.80;;;;;;4952693;28;20273;-86
2023/12/26 07:54:18;;;;;;;0.63;0.63;;;12.30;80.70;;;;;;4954002;28;20326;-86
2023/12/26 07:56:47;;;;;;;1.90;0.87;;;12.30;80.20;;;;;;4953027;28;20262;-87
2023/12/26 07:59:16;;;;;;;1.33;1.23;;;12.40;80.20;;;;;;4955042;28;20202;-89
2023/12/26 08:01:45;;;;;;;1.67;1.17;;;12.40;80.00;;;;;;4957671;28;20286;-85
2023/12/26 08:04:13;;;;;;;1.27;1.17;;;12.40;80.00;;;;;;4958963;28;20206;-89
2023/12/26 08:06:42;;;;;;;1.27;1.00;;;12.50;80.00;;;;;;4953086;28;20265;-84
2023/12/26 08:09:11;;;;;;;1.73;1.50;;;12.60;80.00;;;;;;4956611;28;20190;-84
2023/12/26 08:11:41;;;;;;;1.63;1.50;;;12.70;80.10;;;;;;4948913;28;20214;-86
2023/12/26 08:14:13;;;;;;;4.23;1.73;;;12.80;79.70;;;;;;4951025;28;20198;-84
2023/12/26 08:16:41;;;;;;;1.93;0.90;;;12.90;79.50;;;;;;4948855;28;20246;-86
2023/12/26 08:19:10;;;;;;;0.87;0.60;;;13.00;79.00;;;;;;4953661;28;20261;-87
2023/12/26 08:21:39;;;;;;;1.13;0.80;;;13.10;79.50;;;;;;4955230;28;20198;-84
2023/12/26 08:24:08;;;;;;;1.17;0.67;;;13.20;79.50;;;;;;4953992;28;20685;-87
2023/12/26 08:26:37;;;;;;;0.50;0.40;;;13.30;79.60;;;;;;4949561;28;20233;-83
2023/12/26 08:29:10;;;;;;;0.90;0.90;;;13.30;79.40;;;;;;4943928;28;20207;-84
2023/12/26 08:31:39;;;;;;;1.17;0.90;;;13.40;79.40;;;;;;4948876;28;20293;-85
2023/12/26 08:34:08;;;;;;;0.50;0.50;;;13.50;79.50;;;;;;4947561;28;20573;-83
2023/12/26 08:36:37;;;;;;;0.20;0.20;;;13.60;79.40;;;;;;4950302;28;20216;-85
2023/12/26 08:39:06;;;;;;;2.17;0.87;;;13.60;79.30;;;;;;4949966;28;20205;-84
2023/12/26 08:41:35;;;;;;;6.50;1.33;;;13.60;78.80;;;;;;4948193;28;20203;-85
2023/12/26 08:44:03;;;;;;;5.67;1.30;;;13.60;78.00;;;;;;4948356;28;20209;-83
2023/12/26 08:46:33;;;;;;;1.07;0.70;;;13.60;78.20;;;;;;4950639;28;20254;-85
2023/12/26 08:49:03;;;;;;;1.63;1.53;;;13.70;78.30;;;;;;4949730;28;20671;-85
2023/12/26 08:51:32;;;;;;;1.17;1.07;;;13.60;78.00;;;;;;4949706;28;20213;-88
2023/12/26 08:54:01;;;;;;;4.77;1.70;;;13.60;77.50;;;;;;4944873;28;20262;-87
2023/12/26 08:56:30;;;;;;;0.87;0.67;;;13.60;77.40;;;;;;4905109;28;1256425;-86
2023/12/26 08:58:58;;;;;;;3.57;1.07;;;13.60;77.50;;;;;;4951331;28;20243;-84
2023/12/26 09:01:27;;;;;;;1.40;1.30;;;13.70;77.40;;;;;;4949824;28;20198;-85
2023/12/26 09:03:57;;;;;;;1.03;0.60;;;13.70;77.20;;;;;;4950812;28;20230;-85
2023/12/26 09:06:26;;;;;;;2.10;1.63;;;13.80;77.20;;;;;;4952441;28;20241;-85
2023/12/26 09:08:55;;;;;;;1.40;1.27;;;13.90;76.90;;;;;;4953060;28;20195;-86
2023/12/26 09:11:24;;;;;;;11.17;1.33;;;13.90;76.10;;;;;;4948782;28;20214;-85
2023/12/26 09:13:52;;;;;;;0.97;0.90;;;13.90;75.80;;;;;;4952133;28;20283;-85
2023/12/26 09:16:21;;;;;;;2.77;0.77;;;13.90;75.80;;;;;;4949893;28;20557;-88
2023/12/26 09:18:49;;;;;;;0.30;0.30;;;14.00;76.00;;;;;;4946934;28;20202;-89
2023/12/26 09:21:20;;;;;;;1.37;1.27;;;14.00;76.00;;;;;;4947845;28;20194;-85
2023/12/26 09:23:49;;;;;;;1.03;0.50;;;14.10;77.10;;;;;;4946279;28;20623;-85
2023/12/26 09:26:21;;;;;;;0.60;0.60;;;14.20;75.80;;;;;;4954188;28;20702;-84
2023/12/26 09:28:50;;;;;;;0.67;0.60;;;14.20;75.60;;;;;;4952110;28;20317;-85
2023/12/26 09:31:18;;;;;;;0.40;0.40;;;14.30;75.40;;;;;;4953541;28;20262;-86
2023/12/26 09:33:48;;;;;;;0.67;0.63;;;14.40;75.40;;;;;;4947379;28;20622;-84
2023/12/26 09:36:17;;;;;;;1.03;0.73;;;14.40;75.10;;;;;;4952242;28;20202;-84
2023/12/26 09:38:47;;;;;;;0.40;0.40;;;14.50;75.30;;;;;;4944771;28;20202;-84
2023/12/26 09:41:22;;;;;;;3.37;1.97;;;14.60;75.40;;;;;;4948018;28;20540;-84
2023/12/26 09:43:50;;;;;;;0.40;0.40;;;14.70;74.90;;;;;;4953670;28;20611;-86
2023/12/26 09:46:19;;;;;;;0.93;0.90;;;14.70;75.00;;;;;;4953387;28;20230;-85
2023/12/26 09:48:48;;;;;;;3.60;1.47;;;14.80;74.80;;;;;;4949543;28;20238;-84
2023/12/26 09:51:22;;;;;;;1.10;0.70;;;14.90;74.40;;;;;;4948984;28;20190;-84
2023/12/26 09:53:57;;;;;;;1.00;1.00;;;15.00;74.20;;;;;;4950789;28;20197;-87
2023/12/26 09:56:26;;;;;;;0.90;0.73;;;15.00;73.70;;;;;;4951226;28;20244;-85
2023/12/26 09:58:57;;;;;;;1.23;0.90;;;15.10;74.50;;;;;;4948423;28;20226;-84
2023/12/26 10:01:28;;;;;;;1.90;1.63;;;15.20;73.70;;;;;;4952087;28;20194;-85
2023/12/26 10:03:57;;;;;;;0.57;0.57;;;15.20;73.70;;;;;;4950133;28;20209;-84
2023/12/26 10:06:27;;;;;;;3.57;1.97;;;15.30;73.50;;;;;;4956043;28;20566;-84
2023/12/26 10:08:57;;;;;;;7.00;1.27;;;15.40;73.20;;;;;;4951523;28;20222;-85
2023/12/26 10:11:26;;;;;;;0.80;0.80;;;15.50;73.00;;;;;;4948336;28;20202;-85
2023/12/26 10:13:56;;;;;;;1.23;1.10;;;15.60;72.70;;;;;;4947041;28;20260;-83
2023/12/26 10:16:25;;;;;;;4.70;2.63;;;15.70;72.10;;;;;;4950435;28;20255;-83
2023/12/26 10:18:54;;;;;;;1.40;1.27;;;15.80;72.00;;;;;;4953017;28;20199;-83
2023/12/26 10:21:23;;;;;;;0.63;0.63;;;15.80;72.00;;;;;;4954336;28;20210;-83
2023/12/26 10:23:52;;;;;;;1.73;1.10;;;15.90;71.30;;;;;;4954561;28;20203;-81
2023/12/26 10:26:23;;;;;;;0.70;0.70;;;16.00;71.20;;;;;;4952144;28;20270;-84
2023/12/26 10:28:53;;;;;;;0.43;0.43;;;16.10;71.10;;;;;;4947629;28;20230;-85
2023/12/26 10:31:21;;;;;;;0.53;0.53;;;16.10;70.80;;;;;;4949645;28;20226;-85
2023/12/26 10:33:53;;;;;;;0.50;0.50;;;16.20;71.00;;;;;;4946337;28;20207;-84
2023/12/26 10:36:22;;;;;;;0.40;0.40;;;16.30;70.60;;;;;;4944480;28;21040;-84
2023/12/26 10:38:50;;;;;;;1.13;0.73;;;16.40;70.90;;;;;;4949184;28;20195;-84
2023/12/26 10:41:27;;;;;;;0.63;0.63;;;16.50;70.30;;;;;;4950695;28;20226;-82
2023/12/26 10:43:59;;;;;;;3.50;1.60;;;16.50;70.00;;;;;;4942794;28;20195;-82
2023/12/26 10:46:29;;;;;;;0.63;0.63;;;16.60;69.60;;;;;;4951710;28;20211;-82
2023/12/26 10:49:04;;;;;;;0.70;0.70;;;16.60;69.70;;;;;;4949983;28;20332;-82
2023/12/26 10:51:36;;;;;;;0.80;0.80;;;16.70;69.40;;;;;;4942786;28;20206;-82
2023/12/26 10:54:14;;;;;;;1.07;0.63;;;16.70;69.30;;;;;;4946708;28;20205;-81
2023/12/26 10:56:47;;;;;;;1.23;1.07;;;16.80;69.60;;;;;;4952547;28;20232;-82
2023/12/26 13:52:21;;;;;;;1.77;0.70;;;32.40;42.90;;;;;;4952995;28;20277;-87
2023/12/26 13:54:50;;;;;;;1.53;1.17;;;33.10;41.30;;;;;;4951587;28;20451;-85
2023/12/26 13:57:18;;;;;;;1.17;0.75;;;32.80;40.30;;;;;;4954763;28;20494;-86
2023/12/26 13:59:47;;;;;;;3.75;1.27;;;32.80;40.10;;;;;;4951885;28;20221;-86
2023/12/26 14:02:16;;;;;;;0.80;0.80;;;32.00;40.20;;;;;;4960715;28;20199;-86
2023/12/26 14:04:46;;;;;;;4.53;1.05;;;31.50;40.90;;;;;;4954776;28;20840;-86
2023/12/26 14:07:19;;;;;;;1.55;0.80;;;30.90;40.30;;;;;;4953457;28;20262;-84
2023/12/26 14:09:49;;;;;;;5.00;1.35;;;30.10;41.20;;;;;;4951861;28;20281;-86
2023/12/26 14:12:18;;;;;;;1.10;0.70;;;28.90;42.30;;;;;;4948350;28;20204;-86
2023/12/26 14:14:47;;;;;;;1.95;0.75;;;28.00;44.20;;;;;;4953336;28;20206;-86
2023/12/26 14:17:16;;;;;;;0.30;0.30;;;27.20;44.70;;;;;;4948542;28;20561;-89
2023/12/26 14:19:45;;;;;;;0.73;0.70;;;26.30;45.80;;;;;;4950330;28;20287;-88
2023/12/26 14:22:14;;;;;;;0.60;0.60;;;25.60;46.90;;;;;;4949804;28;20221;-87
2023/12/26 14:24:43;;;;;;;9.85;1.13;;;24.90;48.10;;;;;;4952304;28;20298;-85
2023/12/26 14:27:14;;;;;;;1.23;0.77;;;24.30;48.90;;;;;;4953046;28;20217;-86
2023/12/26 14:29:45;;;;;;;1.90;0.95;;;23.80;49.80;;;;;;4941306;28;20245;-84
2023/12/26 14:32:16;;;;;;;0.50;0.50;;;23.40;50.70;;;;;;4946023;28;20222;-84
2023/12/26 14:34:46;;;;;;;1.27;0.98;;;22.90;51.70;;;;;;4948703;28;20220;-84
2023/12/26 14:37:18;;;;;;;2.05;1.48;;;22.50;52.60;;;;;;4945589;28;20194;-84
2023/12/26 14:39:50;;;;;;;1.13;1.05;;;22.10;53.40;;;;;;4942561;28;20287;-85
2023/12/26 14:42:20;;;;;;;1.30;1.20;;;21.80;54.20;;;;;;4948694;28;20234;-85
2023/12/26 14:44:49;;;;;;;1.00;0.75;;;21.40;54.50;;;;;;4944803;28;20211;-85
2023/12/26 14:47:18;;;;;;;2.92;1.58;;;21.10;55.70;;;;;;4947926;28;20233;-86
2023/12/26 14:49:47;;;;;;;1.48;0.88;;;20.80;56.30;;;;;;4944842;28;20233;-85
2023/12/26 14:52:18;;;;;;;1.40;0.75;;;20.60;56.90;;;;;;4952390;28;20309;-85
2023/12/26 14:54:47;;;;;;;1.48;1.38;;;20.30;57.60;;;;;;4950771;28;20194;-86
2023/12/26 14:57:53;;;;;;;3.72;2.75;;;20.10;58.20;;;;;;4951822;28;20258;-85
2023/12/26 15:00:59;;;;;;;2.37;1.73;;;19.90;58.90;;;;;;4951773;28;21661;-86
2023/12/26 15:03:30;;;;;;;3.30;2.40;;;19.60;59.90;;;;;;4943976;28;20194;-87
2023/12/26 15:05:59;;;;;;;17.00;1.90;;;19.40;60.40;;;;;;4950562;28;20202;-87
2023/12/26 15:08:29;;;;;;;3.33;1.70;;;19.20;61.00;;;;;;4954521;28;20195;-87
2023/12/26 15:10:58;;;;;;;4.23;1.27;;;19.00;61.70;;;;;;4955929;28;20226;-87
2023/12/26 15:13:27;;;;;;;2.93;1.90;;;18.90;62.40;;;;;;4955287;28;20205;-88
2023/12/26 15:16:16;;;;;;;4.10;1.30;;;18.70;63.20;;;;;;4950253;28;20650;-83
2023/12/26 15:18:46;;;;;;;1.70;1.27;;;18.50;63.80;;;;;;4946331;28;20226;-81
2023/12/26 15:21:15;;;;;;;0.73;0.70;;;18.40;64.20;;;;;;4946037;28;20205;-81
2023/12/26 15:23:49;;;;;;;1.33;1.23;;;18.30;65.00;;;;;;4954744;28;20218;-84
2023/12/26 15:26:18;;;;;;;2.33;1.57;;;18.10;65.70;;;;;;4952229;28;20299;-81
2023/12/26 15:28:47;;;;;;;2.40;1.83;;;18.00;66.30;;;;;;4952634;28;20344;-79
2023/12/26 15:31:16;;;;;;;9.63;1.60;;;17.90;67.20;;;;;;4953608;28;20323;-81
2023/12/26 15:33:50;;;;;;;2.53;1.00;;;17.80;67.50;;;;;;4953465;28;20294;-81
2023/12/26 15:36:19;;;;;;;2.63;1.90;;;17.70;68.80;;;;;;4947924;28;20245;-82
2023/12/26 15:38:49;;;;;;;6.47;1.57;;;17.60;68.40;;;;;;4947985;28;20261;-83
2023/12/26 15:41:19;;;;;;;1.30;1.00;;;17.50;69.50;;;;;;4953396;28;20206;-82
2023/12/26 15:43:51;;;;;;;2.90;1.60;;;17.40;69.70;;;;;;4951020;28;20624;-81
2023/12/26 15:46:21;;;;;;;2.00;1.07;;;17.20;70.10;;;;;;4954623;28;20292;-84
2023/12/26 15:48:52;;;;;;;3.80;1.57;;;17.10;70.80;;;;;;4952823;28;20331;-89
2023/12/26 15:51:24;;;;;;;2.67;2.13;;;17.10;71.10;;;;;;4957139;28;20729;-89